createdAt,value
2019-02-05T00:01:21.046Z,7.70
2019-02-05T00:03:50.615Z,8.67
2019-02-05T00:06:20.482Z,8.43
2019-02-05T00:08:50.051Z,8.63
2019-02-05T00:11:19.544Z,9.40
2019-02-05T00:13:48.938Z,8.30
2019-02-05T00:16:18.328Z,7.70
2019-02-05T00:18:47.824Z,8.67
2019-02-05T00:21:17.791Z,8.27
2019-02-05T00:23:47.193Z,9.00
2019-02-05T00:26:16.589Z,9.27
2019-02-05T00:28:46.110Z,9.00
2019-02-05T00:31:15.634Z,8.63
2019-02-05T00:33:45.005Z,11.90
2019-02-05T00:36:14.681Z,9.87
2019-02-05T00:38:44.164Z,10.57
2019-02-05T00:41:13.759Z,8.53
2019-02-05T00:43:43.154Z,8.57
2019-02-05T00:46:12.838Z,8.30
2019-02-05T00:48:42.219Z,9.17
2019-02-05T00:51:11.669Z,10.63
2019-02-05T00:53:41.368Z,10.37
2019-02-05T00:56:17.360Z,9.23
2019-02-05T00:58:41.980Z,7.20
2019-02-05T01:01:11.371Z,6.77
2019-02-05T01:03:40.850Z,7.07
2019-02-05T01:06:10.494Z,7.40
2019-02-05T01:08:40.132Z,6.67
2019-02-05T01:11:09.522Z,8.47
2019-02-05T01:13:39.145Z,12.87
2019-02-05T01:16:08.759Z,8.73
2019-02-05T01:18:38.660Z,10.70
2019-02-05T01:21:08.167Z,10.73
2019-02-05T01:23:37.655Z,17.37
2019-02-05T01:26:07.158Z,15.83
2019-02-05T01:28:36.721Z,17.37
2019-02-05T01:31:06.114Z,12.10
2019-02-05T01:33:35.675Z,9.00
2019-02-05T01:36:05.156Z,8.53
2019-02-05T01:38:34.548Z,9.10
2019-02-05T01:41:03.986Z,10.37
2019-02-05T01:43:33.482Z,11.80
2019-02-05T01:46:03.081Z,11.03
2019-02-05T01:48:32.470Z,10.13
2019-02-05T01:51:01.873Z,8.17
2019-02-05T01:53:31.364Z,7.67
2019-02-05T01:56:00.858Z,6.63
2019-02-05T01:58:30.289Z,7.33
2019-02-05T02:00:59.955Z,9.87
2019-02-05T02:03:29.783Z,8.10
2019-02-05T02:05:59.176Z,7.63
2019-02-05T02:08:29.046Z,7.80
2019-02-05T02:10:58.626Z,7.90
2019-02-05T02:13:28.104Z,7.30
2019-02-05T02:15:58.106Z,8.10
2019-02-05T02:18:27.581Z,8.23
2019-02-05T02:20:57.100Z,8.50
2019-02-05T02:23:26.592Z,7.33
2019-02-05T02:25:55.973Z,8.20
2019-02-05T02:28:25.474Z,8.63
2019-02-05T02:30:54.966Z,7.33
2019-02-05T02:33:24.507Z,9.60
2019-02-05T02:35:54.139Z,10.17
2019-02-05T02:38:23.635Z,10.23
2019-02-05T02:40:53.379Z,10.13
2019-02-05T02:43:22.771Z,9.43
2019-02-05T02:45:52.265Z,12.00
2019-02-05T02:48:21.699Z,10.83
2019-02-05T02:50:51.080Z,11.37
2019-02-05T02:53:20.794Z,10.70
2019-02-05T02:55:50.543Z,11.70
2019-02-05T02:58:20.150Z,12.23
2019-02-05T03:00:49.840Z,11.60
2019-02-05T03:03:19.714Z,13.27
2019-02-05T03:05:49.600Z,11.30
2019-02-05T03:08:19.338Z,11.93
2019-02-05T03:10:49.059Z,11.87
2019-02-05T03:13:18.918Z,12.23
2019-02-05T03:15:48.776Z,14.23
2019-02-05T03:18:18.483Z,13.80
2019-02-05T03:20:48.095Z,13.30
2019-02-05T03:23:17.769Z,14.37
2019-02-05T03:25:47.159Z,12.97
2019-02-05T03:28:16.908Z,13.77
2019-02-05T03:30:46.725Z,17.00
2019-02-05T03:33:16.315Z,19.83
2019-02-05T03:35:45.808Z,18.40
2019-02-05T03:38:15.598Z,16.37
2019-02-05T03:41:04.800Z,22.00
2019-02-05T03:43:35.431Z,36.23
2019-02-05T03:46:09.949Z,30.73
2019-02-05T03:48:40.647Z,27.10
2019-02-05T03:51:30.577Z,34.63
2019-02-05T03:54:30.238Z,32.07
2019-02-05T03:57:09.437Z,28.53
2019-02-05T04:00:06.591Z,20.13
2019-02-05T04:02:58.094Z,20.50
2019-02-05T04:06:14.388Z,17.67
2019-02-05T04:09:12.739Z,16.40
2019-02-05T04:12:13.507Z,17.97
2019-02-05T04:14:58.359Z,16.70
2019-02-05T04:18:00.494Z,19.03
2019-02-05T04:21:11.015Z,23.43
2019-02-05T04:24:00.081Z,17.50
2019-02-05T04:26:42.704Z,18.00
2019-02-05T04:29:55.045Z,19.20
2019-02-05T04:33:17.502Z,17.30
2019-02-05T04:36:42.813Z,39.73
2019-02-05T04:39:40.827Z,31.83
2019-02-05T04:42:37.551Z,26.30
2019-02-05T04:45:37.361Z,21.23
2019-02-05T04:48:56.447Z,30.57
2019-02-05T04:51:50.109Z,31.03
2019-02-05T04:55:14.658Z,25.67
2019-02-05T04:58:15.774Z,42.10
2019-02-05T05:01:18.802Z,26.70
2019-02-05T05:04:16.678Z,20.90
2019-02-05T05:07:22.474Z,21.87
2019-02-05T05:09:59.964Z,20.50
2019-02-05T05:12:30.582Z,21.10
2019-02-05T05:15:00.899Z,20.70
2019-02-05T05:17:30.519Z,31.17
2019-02-05T05:20:00.517Z,38.70
2019-02-05T05:22:30.768Z,23.77
2019-02-05T05:25:00.363Z,38.10
2019-02-05T05:27:30.785Z,24.40
2019-02-05T05:30:00.585Z,29.20
2019-02-05T05:32:30.206Z,25.77
2019-02-05T05:35:00.153Z,29.83
2019-02-05T05:37:29.750Z,32.50
2019-02-05T05:39:59.234Z,38.13
2019-02-05T05:42:28.897Z,40.03
2019-02-05T05:44:58.296Z,33.10
2019-02-05T05:47:27.776Z,30.07
2019-02-05T05:49:57.288Z,29.63
2019-02-05T05:52:26.948Z,26.80
2019-02-05T05:54:56.689Z,23.00
2019-02-05T05:57:26.743Z,21.83
2019-02-05T05:59:56.225Z,22.53
2019-02-05T06:02:25.615Z,23.73
2019-02-05T06:04:55.001Z,32.57
2019-02-05T06:07:24.646Z,41.20
2019-02-05T06:09:54.117Z,51.57
2019-02-05T06:12:23.542Z,72.33
2019-02-05T06:14:52.936Z,37.10
2019-02-05T06:17:22.477Z,36.23
2019-02-05T06:19:51.861Z,35.37
2019-02-05T06:22:21.462Z,29.13
2019-02-05T06:24:50.994Z,33.57
2019-02-05T06:27:20.505Z,30.10
2019-02-05T06:29:50.269Z,29.07
2019-02-05T06:32:20.161Z,30.67
2019-02-05T06:34:49.704Z,29.37
2019-02-05T06:37:19.099Z,36.17
2019-02-05T06:39:51.641Z,33.37
2019-02-05T06:42:21.496Z,39.87
2019-02-05T06:44:51.150Z,52.77
2019-02-05T06:47:20.548Z,61.27
2019-02-05T06:49:50.029Z,53.33
2019-02-05T06:52:19.537Z,55.37
2019-02-05T06:54:49.029Z,88.03
2019-02-05T06:57:18.479Z,89.37
2019-02-05T06:59:48.260Z,86.53
2019-02-05T07:02:17.755Z,74.83
2019-02-05T07:04:47.257Z,71.47
2019-02-05T07:07:16.647Z,55.03
2019-02-05T07:09:46.049Z,45.77
2019-02-05T07:12:15.555Z,43.77
2019-02-05T07:14:45.097Z,41.97
2019-02-05T07:17:14.496Z,41.17
2019-02-05T07:19:43.894Z,45.50
2019-02-05T07:22:13.489Z,37.97
2019-02-05T07:24:42.986Z,39.50
2019-02-05T07:27:12.375Z,49.90
2019-02-05T07:29:41.774Z,67.87
2019-02-05T07:32:11.652Z,66.23
2019-02-05T07:34:41.144Z,53.27
2019-02-05T07:37:10.573Z,42.70
2019-02-05T07:39:40.064Z,47.83
2019-02-05T07:42:09.475Z,49.80
2019-02-05T07:44:40.067Z,38.17
2019-02-05T07:47:09.743Z,38.37
2019-02-05T07:49:39.526Z,31.60
2019-02-05T07:52:09.115Z,31.43
2019-02-05T07:54:38.507Z,39.13
2019-02-05T07:57:08.162Z,36.33
2019-02-05T07:59:37.899Z,30.60
2019-02-05T08:02:07.614Z,30.73
2019-02-05T08:04:37.008Z,37.60
2019-02-05T08:07:07.685Z,33.53
2019-02-05T08:09:37.688Z,30.97
2019-02-05T08:12:07.291Z,31.37
2019-02-05T08:14:36.674Z,32.03
2019-02-05T08:17:06.208Z,46.27
2019-02-05T08:19:35.633Z,39.37
2019-02-05T08:22:05.321Z,36.70
2019-02-05T08:24:35.120Z,40.10
2019-02-05T08:27:04.790Z,40.00
2019-02-05T08:29:34.540Z,36.93
2019-02-05T08:32:04.352Z,35.73
2019-02-05T08:34:33.859Z,42.70
2019-02-05T08:37:03.377Z,37.23
2019-02-05T08:39:33.103Z,32.90
2019-02-05T08:42:02.607Z,31.80
2019-02-05T08:44:32.206Z,27.63
2019-02-05T08:47:01.613Z,28.70
2019-02-05T08:49:31.012Z,28.30
2019-02-05T08:52:00.508Z,27.80
2019-02-05T08:54:29.988Z,29.00
2019-02-05T08:56:59.806Z,28.13
2019-02-05T08:59:29.250Z,27.67
2019-02-05T09:01:58.643Z,27.73
2019-02-05T09:04:28.048Z,28.43
2019-02-05T09:06:57.534Z,29.27
2019-02-05T09:09:27.037Z,28.17
2019-02-05T09:11:56.514Z,26.90
2019-02-05T09:14:27.547Z,27.63
2019-02-05T09:16:57.058Z,32.60
2019-02-05T09:19:26.668Z,35.90
2019-02-05T09:21:56.061Z,28.60
2019-02-05T09:24:25.461Z,29.30
2019-02-05T09:26:54.958Z,27.07
2019-02-05T09:29:33.214Z,27.07
2019-02-05T09:31:55.686Z,23.20
2019-02-05T09:34:25.090Z,91.13
2019-02-05T09:36:54.583Z,36.77
2019-02-05T09:39:24.103Z,14.73
2019-02-05T09:41:53.727Z,13.63
2019-02-05T09:44:23.600Z,31.73
2019-02-05T09:46:52.990Z,39.23
2019-02-05T09:49:22.391Z,15.30
2019-02-05T09:51:52.020Z,19.27
2019-02-05T09:54:21.497Z,15.40
2019-02-05T09:56:50.936Z,16.27
2019-02-05T09:59:20.333Z,17.23
2019-02-05T10:01:50.007Z,15.17
2019-02-05T10:04:19.583Z,23.70
2019-02-05T10:06:50.064Z,32.40
2019-02-05T10:09:19.880Z,15.87
2019-02-05T10:11:49.370Z,16.40
2019-02-05T10:14:18.869Z,16.70
2019-02-05T10:16:48.685Z,13.23
2019-02-05T10:19:18.190Z,13.00
2019-02-05T10:21:47.590Z,14.40
2019-02-05T10:24:17.061Z,12.47
2019-02-05T10:26:46.594Z,15.00
2019-02-05T10:29:16.088Z,15.33
2019-02-05T10:31:45.482Z,16.07
2019-02-05T10:34:15.052Z,16.43
2019-02-05T10:36:44.602Z,14.40
2019-02-05T10:39:14.353Z,13.87
2019-02-05T10:41:43.726Z,12.97
2019-02-05T10:44:13.115Z,13.07
2019-02-05T10:46:42.603Z,14.67
2019-02-05T10:49:12.441Z,13.63
2019-02-05T10:51:43.281Z,14.60
2019-02-05T10:54:12.666Z,15.20
2019-02-05T10:56:42.161Z,14.80
2019-02-05T10:59:11.651Z,13.73
2019-02-05T11:01:41.254Z,14.57
2019-02-05T11:04:10.742Z,13.23
2019-02-05T11:06:40.206Z,14.63
2019-02-05T11:09:11.290Z,14.83
2019-02-05T11:11:40.790Z,15.13
2019-02-05T11:14:10.275Z,16.03
2019-02-05T11:16:39.701Z,16.37
2019-02-05T11:19:09.210Z,15.57
2019-02-05T11:21:39.074Z,14.43
2019-02-05T11:24:08.692Z,15.43
2019-02-05T11:26:38.101Z,15.20
2019-02-05T11:29:07.508Z,13.33
2019-02-05T11:31:37.000Z,14.37
2019-02-05T11:34:06.762Z,13.80
2019-02-05T11:36:36.151Z,33.33
2019-02-05T11:39:13.780Z,16.43
2019-02-05T11:41:43.285Z,21.93
2019-02-05T11:44:12.677Z,22.60
2019-02-05T11:46:42.167Z,22.63
2019-02-05T11:49:11.668Z,21.97
2019-02-05T11:51:42.147Z,18.43
2019-02-05T11:54:11.542Z,14.60
2019-02-05T11:56:41.053Z,13.07
2019-02-05T11:59:10.527Z,14.87
2019-02-05T12:01:40.623Z,11.40
2019-02-05T12:04:10.012Z,15.63
2019-02-05T12:06:39.530Z,16.70
2019-02-05T12:09:19.186Z,14.40
2019-02-05T12:11:48.644Z,15.80
2019-02-05T12:14:18.046Z,23.00
2019-02-05T12:16:47.603Z,15.27
2019-02-05T12:19:17.107Z,17.60
2019-02-05T12:21:46.706Z,17.13
2019-02-05T12:24:16.125Z,16.03
2019-02-05T12:26:45.721Z,15.83
2019-02-05T12:29:15.230Z,14.63
2019-02-05T12:31:44.620Z,15.00
2019-02-05T12:34:14.181Z,17.30
2019-02-05T12:36:43.677Z,22.30
2019-02-05T12:39:18.209Z,47.53
2019-02-05T12:41:48.010Z,30.70
2019-02-05T12:44:17.504Z,40.57
2019-02-05T12:46:47.006Z,25.07
2019-02-05T12:49:16.507Z,24.23
2019-02-05T12:51:45.964Z,41.33
2019-02-05T12:54:15.749Z,24.67
2019-02-05T12:56:45.243Z,20.20
2019-02-05T12:59:14.648Z,17.63
2019-02-05T13:01:44.128Z,15.37
2019-02-05T13:04:13.680Z,18.27
2019-02-05T13:06:43.067Z,25.23
2019-02-05T13:09:12.647Z,15.93
2019-02-05T13:11:42.142Z,17.03
2019-02-05T13:14:11.627Z,16.50
2019-02-05T13:16:41.036Z,19.87
2019-02-05T13:19:10.431Z,14.00
2019-02-05T13:21:39.935Z,16.80
2019-02-05T13:24:09.515Z,19.83
2019-02-05T13:26:38.921Z,17.17
2019-02-05T13:29:08.321Z,22.17
2019-02-05T13:31:37.871Z,19.57
2019-02-05T13:34:07.875Z,16.97
2019-02-05T13:36:37.275Z,17.50
2019-02-05T13:39:11.968Z,19.77
2019-02-05T13:41:41.358Z,18.93
2019-02-05T13:44:10.771Z,17.77
2019-02-05T13:46:40.266Z,18.67
2019-02-05T13:49:09.863Z,20.07
2019-02-05T13:51:39.641Z,18.37
2019-02-05T13:54:09.076Z,17.57
2019-02-05T13:56:38.762Z,17.63
2019-02-05T13:59:08.252Z,17.60
2019-02-05T14:01:37.999Z,18.60
2019-02-05T14:04:07.527Z,18.93
2019-02-05T14:06:37.295Z,18.17
2019-02-05T14:09:12.736Z,18.50
2019-02-05T14:11:42.472Z,21.97
2019-02-05T14:14:11.876Z,23.00
2019-02-05T14:16:41.714Z,20.37
2019-02-05T14:19:11.099Z,23.33
2019-02-05T14:21:40.861Z,25.73
2019-02-05T14:24:10.742Z,27.53
2019-02-05T14:26:40.255Z,28.80
2019-02-05T14:29:10.343Z,26.43
2019-02-05T14:31:40.011Z,25.50
2019-02-05T14:34:09.732Z,26.50
2019-02-05T14:36:39.253Z,31.20
2019-02-05T14:39:10.513Z,22.70
2019-02-05T14:41:39.998Z,21.33
2019-02-05T14:44:09.785Z,20.27
2019-02-05T14:46:39.398Z,27.97
2019-02-05T14:49:09.276Z,40.63
2019-02-05T14:51:39.011Z,36.93
2019-02-05T14:54:08.610Z,30.80
2019-02-05T14:56:38.269Z,16.73
2019-02-05T14:59:08.155Z,15.93
2019-02-05T15:01:43.169Z,17.13
2019-02-05T15:04:08.703Z,21.80
2019-02-05T15:06:38.459Z,20.47
2019-02-05T15:09:09.177Z,16.83
2019-02-05T15:11:38.809Z,17.97
2019-02-05T15:14:08.676Z,71.93
2019-02-05T15:16:38.447Z,57.73
2019-02-05T15:19:08.216Z,32.70
2019-02-05T15:21:37.897Z,18.77
2019-02-05T15:24:07.307Z,40.17
2019-02-05T15:26:36.955Z,56.17
2019-02-05T15:29:06.655Z,89.97
2019-02-05T15:31:36.637Z,52.17
2019-02-05T15:34:17.984Z,66.30
2019-02-05T15:36:49.552Z,84.50
2019-02-05T15:39:19.117Z,34.57
2019-02-05T15:41:48.957Z,39.17
2019-02-05T15:44:18.453Z,51.47
2019-02-05T15:46:48.120Z,71.60
2019-02-05T15:49:17.505Z,91.73
2019-02-05T15:51:47.088Z,150.13
2019-02-05T15:54:16.592Z,86.83
2019-02-05T15:56:48.500Z,67.57
2019-02-05T15:59:18.097Z,61.60
2019-02-05T16:01:47.717Z,94.93
2019-02-05T16:04:18.262Z,89.47
2019-02-05T16:06:47.702Z,111.13
2019-02-05T16:09:19.400Z,139.27
2019-02-05T16:11:52.212Z,106.63
2019-02-05T16:14:21.829Z,75.27
2019-02-05T16:16:51.269Z,78.60
2019-02-05T16:19:20.955Z,107.33
2019-02-05T16:21:50.590Z,86.63
2019-02-05T16:24:20.001Z,94.03
2019-02-05T16:26:51.205Z,89.33
2019-02-05T16:29:20.706Z,60.27
2019-02-05T16:31:50.357Z,58.33
2019-02-05T16:34:19.908Z,50.53
2019-02-05T16:36:49.683Z,16.50
2019-02-05T16:39:21.984Z,8.70
2019-02-05T16:41:51.780Z,16.00
2019-02-05T16:44:21.181Z,9.73
2019-02-05T16:46:51.074Z,16.30
2019-02-05T16:49:22.503Z,10.13
2019-02-05T16:51:51.935Z,14.47
2019-02-05T16:54:21.643Z,17.20
2019-02-05T16:56:51.506Z,8.50
2019-02-05T16:59:21.568Z,8.57
2019-02-05T17:01:51.551Z,7.00
2019-02-05T17:04:21.101Z,7.93
2019-02-05T17:06:50.527Z,7.17
2019-02-05T17:09:20.503Z,7.53
2019-02-05T17:11:50.266Z,9.10
2019-02-05T17:14:20.070Z,12.50
2019-02-05T17:16:49.525Z,13.07
2019-02-05T17:19:18.928Z,16.60
2019-02-05T17:21:48.425Z,16.53
2019-02-05T17:24:18.510Z,24.70
2019-02-05T17:26:48.255Z,18.27
2019-02-05T17:29:17.639Z,18.07
2019-02-05T17:31:47.526Z,12.67
2019-02-05T17:34:17.384Z,14.27
2019-02-05T17:36:46.805Z,23.63
2019-02-05T17:39:16.479Z,19.40
2019-02-05T17:41:46.225Z,14.27
2019-02-05T17:44:16.035Z,15.50
2019-02-05T17:46:45.617Z,11.63
2019-02-05T17:49:15.328Z,12.60
2019-02-05T17:51:45.302Z,24.87
2019-02-05T17:54:15.295Z,25.00
2019-02-05T17:56:45.149Z,23.47
2019-02-05T17:59:14.972Z,15.73
2019-02-05T18:01:44.620Z,13.87
2019-02-05T18:04:14.404Z,10.57
2019-02-05T18:06:44.926Z,11.73
2019-02-05T18:09:14.703Z,9.30
2019-02-05T18:11:44.462Z,7.77
2019-02-05T18:14:14.595Z,7.50
2019-02-05T18:16:46.776Z,7.03
2019-02-05T18:19:16.565Z,6.80
2019-02-05T18:21:46.852Z,8.90
2019-02-05T18:24:16.753Z,8.13
2019-02-05T18:26:47.945Z,6.80
2019-02-05T18:29:19.817Z,7.97
2019-02-05T18:31:49.403Z,8.70
2019-02-05T18:34:19.274Z,8.57
2019-02-05T18:36:49.136Z,9.00
2019-02-05T18:39:18.833Z,9.43
2019-02-05T18:41:48.664Z,10.27
2019-02-05T18:44:18.234Z,11.80
2019-02-05T18:46:47.979Z,13.57
2019-02-05T18:49:18.005Z,13.43
2019-02-05T18:51:47.764Z,13.13
2019-02-05T18:54:17.476Z,12.83
2019-02-05T18:56:47.022Z,12.77
2019-02-05T18:59:16.566Z,12.57
2019-02-05T19:01:46.375Z,11.80
2019-02-05T19:04:16.543Z,11.33
2019-02-05T19:06:46.178Z,10.80
2019-02-05T19:09:16.080Z,16.27
2019-02-05T19:11:46.046Z,13.83
2019-02-05T19:14:16.035Z,10.73
2019-02-05T19:16:45.779Z,10.90
2019-02-05T19:19:15.950Z,8.13
2019-02-05T19:21:45.917Z,7.07
2019-02-05T19:24:32.918Z,6.37
2019-02-05T19:27:02.342Z,7.77
2019-02-05T19:29:32.854Z,8.27
2019-02-05T19:32:02.684Z,8.20
2019-02-05T19:34:32.323Z,8.07
2019-02-05T19:37:02.411Z,7.63
2019-02-05T19:39:32.219Z,15.87
2019-02-05T19:42:01.826Z,10.00
2019-02-05T19:44:31.508Z,7.40
2019-02-05T19:47:04.247Z,7.03
2019-02-05T19:49:36.982Z,5.77
2019-02-05T19:52:06.667Z,4.50
2019-02-05T19:54:36.435Z,5.00
2019-02-05T19:57:06.268Z,4.73
2019-02-05T19:59:36.663Z,6.47
2019-02-05T20:02:06.862Z,4.30
2019-02-05T20:04:38.906Z,4.80
2019-02-05T20:07:08.556Z,4.30
2019-02-05T20:09:38.298Z,4.07
2019-02-05T20:12:09.393Z,4.20
2019-02-05T20:14:39.091Z,4.03
2019-02-05T20:17:09.096Z,4.33
2019-02-05T20:19:38.701Z,4.63
2019-02-05T20:22:08.185Z,4.67
2019-02-05T20:24:37.710Z,4.93
2019-02-05T20:27:07.938Z,4.60
2019-02-05T20:29:37.537Z,4.70
2019-02-05T20:32:07.626Z,6.20
2019-02-05T20:34:37.746Z,6.10
2019-02-05T20:37:07.497Z,4.20
2019-02-05T20:39:37.242Z,4.50
2019-02-05T20:42:06.913Z,4.80
2019-02-05T20:44:36.634Z,5.00
2019-02-05T20:47:06.745Z,4.60
2019-02-05T20:49:36.127Z,4.50
2019-02-05T20:52:05.992Z,4.83
2019-02-05T20:54:35.604Z,5.43
2019-02-05T20:57:05.270Z,4.50
2019-02-05T20:59:34.913Z,5.00
2019-02-05T21:02:04.736Z,4.70
2019-02-05T21:04:35.524Z,4.47
2019-02-05T21:07:05.643Z,4.63
2019-02-05T21:09:35.134Z,4.67
2019-02-05T21:12:04.852Z,5.10
2019-02-05T21:14:34.465Z,5.63
2019-02-05T21:17:04.299Z,5.47
2019-02-05T21:19:34.133Z,7.47
2019-02-05T21:22:03.791Z,7.07
2019-02-05T21:24:33.226Z,6.63
2019-02-05T21:27:02.836Z,6.90
2019-02-05T21:29:32.572Z,6.10
2019-02-05T21:32:01.961Z,4.47
2019-02-05T21:34:31.900Z,4.63
2019-02-05T21:37:01.560Z,5.37
2019-02-05T21:39:31.138Z,6.13
2019-02-05T21:42:00.987Z,6.87
2019-02-05T21:44:30.725Z,6.47
2019-02-05T21:47:00.313Z,4.20
2019-02-05T21:49:30.079Z,4.57
2019-02-05T21:51:59.807Z,4.40
2019-02-05T21:54:29.287Z,5.10
2019-02-05T21:56:58.897Z,5.77
2019-02-05T21:59:28.295Z,6.53
2019-02-05T22:01:57.796Z,5.27
2019-02-05T22:04:28.214Z,4.13
2019-02-05T22:06:58.151Z,4.80
2019-02-05T22:09:27.631Z,6.30
2019-02-05T22:11:57.308Z,5.80
2019-02-05T22:14:26.804Z,9.83
2019-02-05T22:16:56.203Z,24.33
2019-02-05T22:19:27.048Z,17.07
2019-02-05T22:21:56.716Z,15.63
2019-02-05T22:24:26.407Z,16.97
2019-02-05T22:26:56.244Z,14.93
2019-02-05T22:29:25.745Z,15.17
2019-02-05T22:31:56.927Z,19.17
2019-02-05T22:34:38.600Z,19.93
2019-02-05T22:36:57.891Z,20.67
2019-02-05T22:39:27.754Z,21.50
2019-02-05T22:41:57.444Z,19.90
2019-02-05T22:44:26.850Z,18.13
2019-02-05T22:46:56.987Z,17.83
2019-02-05T22:49:26.770Z,16.33
2019-02-05T22:51:56.714Z,15.07
2019-02-05T22:54:26.417Z,19.97
2019-02-05T22:56:55.907Z,23.57
2019-02-05T22:59:25.938Z,24.80
2019-02-05T23:01:57.979Z,24.00
2019-02-05T23:05:14.071Z,21.17
2019-02-05T23:07:43.996Z,25.27
2019-02-05T23:10:34.823Z,30.90
2019-02-05T23:13:07.791Z,24.67
2019-02-05T23:15:39.322Z,24.70
2019-02-05T23:18:09.294Z,23.67
2019-02-05T23:20:39.001Z,24.57
2019-02-05T23:23:08.385Z,26.73
2019-02-05T23:25:38.069Z,26.30
2019-02-05T23:28:07.769Z,26.07
2019-02-05T23:30:37.508Z,26.97
2019-02-05T23:33:07.162Z,25.33
2019-02-05T23:35:36.789Z,26.43
2019-02-05T23:38:06.742Z,27.10
2019-02-05T23:40:36.336Z,26.20
2019-02-05T23:43:06.409Z,24.43
2019-02-05T23:45:36.317Z,23.07
2019-02-05T23:48:06.377Z,27.50
2019-02-05T23:50:36.081Z,24.53
2019-02-05T23:53:06.586Z,28.23
2019-02-05T23:55:36.425Z,28.67
2019-02-05T23:58:06.583Z,30.73
